Campanya meteocatpedra

Dades EMA Vinyols i els Arcs

?
?
Resum diari 20:30 TU
Dades diàries de l'estació meteorològica
Temperatura mitjana 25.6 °C
Temperatura màxima 29.2 °C 13:05 TU
Temperatura mínima 21.7 °C 0:47 TU
Humitat relativa mitjana 71%
Precipitació acumulada 0.0 mm
Ratxa màxima del vent (2 m) 18.0 km/h - 102º 7:19 TU
Irradiació solar global 22.8 MJ/m2

El tram horari està expressat en Temps Universal (TU). Cal sumar una hora en horari d'hivern i dues en horari d'estiu per passar a l'hora oficial.

Vinyols i els Arcs

Metadades estació meteorol´gica
Municipi Vinyols i els Arcs
Comarca Baix Camp
Altitud 29 m
Data alta 17.05.1989
Estat actual Operativa
Dades de període
Període
TU
TM
°C
TX
°C
TN
°C
HRM
%
PPT
mm
VVM (2 m)
km/h
DVM (2 m)
graus
VVX (2 m)
km/h
RS
W/m2
00:00 - 00:30 21.9 22.0 21.8 84 0.0 2.9 336 7.2 0
00:30 - 01:00 21.8 21.9 21.7 84 0.0 3.2 338 8.3 0
01:00 - 01:30 22.0 22.2 21.9 81 0.0 2.9 340 7.9 0
01:30 - 02:00 22.5 22.6 22.2 80 0.0 3.2 337 7.9 0
02:00 - 02:30 22.6 22.7 22.5 80 0.0 2.9 339 7.2 0
02:30 - 03:00 22.6 22.7 22.6 81 0.0 4.0 334 7.6 0
03:00 - 03:30 22.8 22.9 22.7 81 0.0 2.9 338 6.8 0
03:30 - 04:00 22.9 23.0 22.8 78 0.0 1.8 354 5.8 0
04:00 - 04:30 22.9 23.0 22.8 80 0.0 1.4 346 4.0 0
04:30 - 05:00 23.2 23.6 23.0 83 0.0 2.2 1 6.8 0
05:00 - 05:30 23.9 24.0 23.6 81 0.0 3.2 41 9.0 8
05:30 - 06:00 24.3 24.5 24.1 79 0.0 4.3 57 11.2 53
06:00 - 06:30 24.6 24.7 24.5 78 0.0 4.7 56 10.4 74
06:30 - 07:00 25.0 25.3 24.7 76 0.0 4.7 58 11.9 133
07:00 - 07:30 25.2 25.6 25.1 75 0.0 5.8 74 18.0 194
07:30 - 08:00 26.2 26.6 25.6 70 0.0 6.5 87 16.6 367
08:00 - 08:30 26.7 27.0 26.2 67 0.0 5.4 95 12.6 420
08:30 - 09:00 27.3 27.9 26.5 65 0.0 4.3 91 11.2 552
09:00 - 09:30 27.7 28.1 27.1 64 0.0 5.4 131 13.3 616
09:30 - 10:00 27.7 28.0 27.4 64 0.0 5.8 156 11.2 585
10:00 - 10:30 27.6 28.3 27.1 64 0.0 5.8 142 13.3 648
10:30 - 11:00 28.3 28.8 27.7 60 0.0 6.1 143 13.0 747
11:00 - 11:30 28.2 28.6 27.7 59 0.0 7.2 146 14.0 848
11:30 - 12:00 27.7 28.2 27.2 61 0.0 7.9 149 15.8 733
12:00 - 12:30 28.1 28.6 27.6 60 0.0 6.1 138 13.3 836
12:30 - 13:00 28.7 29.0 28.4 51 0.0 7.2 129 15.5 854
13:00 - 13:30 28.6 29.2 28.2 52 0.0 6.8 133 15.1 824
13:30 - 14:00 28.3 28.6 28.0 57 0.0 6.5 135 14.8 781
14:00 - 14:30 28.2 28.6 27.8 58 0.0 7.2 136 16.2 732
14:30 - 15:00 28.0 28.2 27.6 59 0.0 7.2 136 15.8 666
15:00 - 15:30 27.5 28.1 27.0 63 0.0 6.5 142 14.8 486
15:30 - 16:00 27.2 27.6 26.9 64 0.0 6.1 128 12.2 456
16:00 - 16:30 26.7 27.3 26.2 66 0.0 5.0 148 11.5 311
16:30 - 17:00 27.2 27.6 26.9 63 0.0 4.0 137 11.5 338
17:00 - 17:30 26.8 27.1 26.7 64 0.0 3.6 141 9.7 226
17:30 - 18:00 26.4 26.8 26.0 69 0.0 3.2 125 7.9 130
18:00 - 18:30 25.6 26.0 25.4 78 0.0 3.2 129 7.9 53
18:30 - 19:00 25.1 25.4 24.9 81 0.0 3.2 130 7.6 10
19:00 - 19:30 24.8 24.9 24.5 82 0.0 1.4 101 5.0 0
19:30 - 20:00 24.4 24.5 24.4 83 0.0 1.8 49 5.0 0
20:00 - 20:30 24.2 24.4 24.1 82 0.0 1.4 51 5.0 0
20:30 - 21:00 24.0 24.1 23.9 82 0.0 1.4 40 5.4 0
21:00 - 21:30 23.6 23.8 23.4 83 0.0 1.4 5 4.3 0

Les dades en taronja només han passat un control de qualitat automàtic. Resta pendent la seva validació definitiva.